M I D A S
Marine Information and Data Acquisition System
Tripno 582 of the Zeeleeuw from 2003-09-03 06:16:07 to 2003-09-03 13:32:51
Back to CruiseResearch ActivitiesStationsMapUnderway DataData graphs

EquipmentUnitsComment
TimeDGPSUTC
LatitudeDGPSDM.mWGS84
LongitudeDGPSDM.mWGS84
TemperatureSBE03/SBE38deg celciusITS90
ConductivitySBE21S/mITS90
SalinitySBE21 Practical Salinity Units
ChlorophylAChelsea fluorimeterg/lCalibrated in Aceton
Missing or incorrect values are displayed as -999
Sea surface data collected by the RV Zeeleeuw from 2003-09-03 06:16:07 to 2003-09-03 13:32:51
Time Latitude Longitude Temperature Conductivity Salinity ChlorophylA
2003-09-03 06:17:09 51°13.88 2°55.59 18.590652 3.731828 27.267491 4.544836
2003-09-03 06:18:15 51°14.01 2°55.51 18.554433 3.762603 27.534373 4.409999
2003-09-03 06:19:15 51°14.13 2°55.42 18.515012 3.808872 27.92565 4.511127
2003-09-03 06:20:15 51°14.26 2°55.27 18.612738 3.858307 28.335043 4.34258
2003-09-03 06:21:15 51°14.38 2°55.04 18.585243 3.789163 27.775788 4.005486
2003-09-03 06:22:15 51°14.54 2°54.88 18.682046 3.906481 28.739089 4.409999
2003-09-03 06:23:15 51°14.72 2°54.72 18.780073 4.186415 31.012125 4.275161
2003-09-03 06:24:15 51°14.91 2°54.57 18.640222 4.296942 31.873061 2.893076
2003-09-03 06:25:15 51°15.09 2°54.4 18.676108 4.330166 32.123943 2.050341
2003-09-03 06:26:15 51°15.28 2°54.24 18.805269 4.357168 32.324323 1.578409
2003-09-03 06:27:15 51°15.47 2°54.07 18.895066 4.368559 32.387947 1.848084
2003-09-03 06:28:15 51°15.67 2°53.89 18.74733 4.366133 32.36281 1.949212
2003-09-03 06:29:15 51°15.89 2°53.74 18.904479 4.359488 32.31224 2.151469
2003-09-03 06:30:15 51°16.1 2°53.59 18.727719 4.365078 32.339536 1.915503
2003-09-03 06:31:15 51°16.31 2°53.43 18.94861 4.375098 32.40348 1.746956
2003-09-03 06:32:15 51°16.52 2°53.27 18.913439 4.384908 32.472361 1.578409
2003-09-03 06:33:23 51°16.75 2°53.08 18.983681 4.404844 32.591882 1.409862
2003-09-03 06:34:23 51°16.95 2°52.9 19.159222 4.439443 32.778308 1.679537
2003-09-03 06:35:23 51°17.14 2°52.68 19.108462 4.468662 32.91855 1.881794
2003-09-03 06:36:27 51°17.34 2°52.44 19.076652 4.473726 32.930418 2.016631
2003-09-03 06:37:27 51°17.52 2°52.22 19.267173 4.468979 32.916089 2.185178
2003-09-03 06:38:27 51°17.7 2°51.99 19.18514 4.467924 32.902331 2.08405
2003-09-03 06:39:27 51°17.89 2°51.76 19.150621 4.471616 32.902922 1.949212
2003-09-03 06:40:27 51°18.07 2°51.54 19.245784 4.46824 32.875699 2.151469
2003-09-03 06:41:27 51°18.26 2°51.31 19.233553 4.461805 32.827231 2.286306
2003-09-03 06:42:27 51°18.44 2°51.09 19.158444 4.460539 32.824106 2.08405
2003-09-03 06:43:27 51°18.63 2°50.87 19.121617 4.458957 32.816691 1.881794
2003-09-03 06:44:27 51°18.81 2°50.64 19.16217 4.458535 32.815462 1.746956
2003-09-03 06:45:27 51°19 2°50.42 19.252656 4.455687 32.816145 1.645828
2003-09-03 06:46:27 51°19.18 2°50.19 19.10961 4.444716 32.758868 1.645828
2003-09-03 06:47:27 51°19.36 2°49.96 18.961178 4.43248 32.684349 1.645828
2003-09-03 06:48:27 51°19.54 2°49.73 19.097232 4.42499 32.633235 1.679537
2003-09-03 06:49:27 51°19.73 2°49.51 19.123174 4.422669 32.611302 1.746956
2003-09-03 06:50:27 51°19.91 2°49.29 19.073536 4.426994 32.620665 1.713247
2003-09-03 06:51:27 51°20.1 2°49.07 19.300818 4.442183 32.670286 1.578409
2003-09-03 06:52:27 51°20.28 2°48.85 19.517708 4.469714 32.738566 1.409862
2003-09-03 06:53:27 51°20.47 2°48.63 19.575255 4.491549 32.798307 1.443571
2003-09-03 06:54:27 51°20.65 2°48.4 19.522719 4.502099 32.846159 1.376153
2003-09-03 06:55:27 51°20.82 2°48.17 19.582094 4.502942 32.84195 1.409862
2003-09-03 06:56:27 51°21 2°47.93 19.613472 4.51212 32.892968 1.409862
2003-09-03 06:57:27 51°21.17 2°47.69 19.73141 4.515812 32.898107 1.477281
2003-09-03 06:58:27 51°21.34 2°47.45 19.650245 4.521931 32.933553 1.477281
2003-09-03 06:59:27 51°21.51 2°47.2 19.734944 4.526046 32.954315 1.443571
2003-09-03 07:00:27 51°21.69 2°46.98 19.850813 4.531742 32.981294 1.477281
2003-09-03 07:01:27 51°21.88 2°46.75 19.89038 4.541448 33.020899 1.612118
2003-09-03 07:02:27 51°22.06 2°46.53 19.79207 4.564236 33.151813 1.612118
2003-09-03 07:03:27 51°22.25 2°46.31 19.837998 4.584071 33.289688 1.612118
2003-09-03 07:04:33 51°22.45 2°46.06 19.737625 4.59325 33.356507 1.51099
2003-09-03 07:05:33 51°22.63 2°45.83 19.837917 4.595993 33.377136 1.51099
2003-09-03 07:06:35 51°22.82 2°45.59 19.799456 4.594938 33.365761 1.51099
2003-09-03 07:07:35 51°23.01 2°45.36 19.894027 4.600319 33.416798 1.51099
2003-09-03 07:08:33 51°23.18 2°45.14 19.813821 4.602852 33.441322 1.51099
2003-09-03 07:09:31 51°23.36 2°44.92 19.908818 4.605912 33.47576 1.51099
2003-09-03 07:10:31 51°23.55 2°44.7 19.839661 4.610449 33.516065 1.51099
2003-09-03 07:11:33 51°23.74 2°44.46 19.875018 4.617624 33.576178 1.5447
2003-09-03 07:12:31 51°23.92 2°44.24 19.74725 4.625643 33.638675 1.5447
2003-09-03 07:13:33 51°24.11 2°44.02 19.71321 4.631446 33.681998 1.612118
2003-09-03 07:14:35 51°24.3 2°43.79 19.873923 4.638305 33.739577 1.645828
2003-09-03 07:15:33 51°24.48 2°43.57 19.797224 4.642631 33.780502 1.679537
2003-09-03 07:16:31 51°24.66 2°43.35 19.690291 4.644003 33.798489 1.679537
2003-09-03 07:17:33 51°24.85 2°43.12 19.792679 4.644425 33.803633 1.679537
2003-09-03 07:18:31 51°25.03 2°42.9 19.961026 4.645374 33.810242 1.746956
2003-09-03 07:19:33 51°25.23 2°42.67 19.725723 4.648012 33.829483 1.814375
2003-09-03 07:20:33 51°25.41 2°42.45 19.853692 4.649701 33.843251 1.780665
2003-09-03 07:21:35 51°25.61 2°42.22 19.756387 4.652339 33.87045 1.746956
2003-09-03 07:22:33 51°25.79 2°42 19.829561 4.653077 33.873632 1.780665
2003-09-03 07:23:33 51°25.98 2°41.77 19.928061 4.653077 33.871358 1.746956
2003-09-03 07:24:33 51°26.17 2°41.54 19.76601 4.656559 33.9009 1.679537
2003-09-03 07:25:31 51°26.35 2°41.32 19.760488 4.658459 33.940893 1.477281
2003-09-03 07:26:33 51°26.54 2°41.09 19.642233 4.662575 34.005918 1.342443
2003-09-03 07:27:33 51°26.73 2°40.87 19.745788 4.664263 34.029447 1.342443
2003-09-03 07:28:31 51°26.91 2°40.66 19.71256 4.666479 34.045847 1.409862
2003-09-03 07:29:35 51°27.05 2°40.44 19.844973 4.668167 34.056788 1.477281
2003-09-03 07:30:31 51°27.04 2°40.3 19.812725 4.665846 34.041243 1.51099
2003-09-03 07:31:33 51°27.02 2°40.19 19.680088 4.665952 34.040961 1.409862
2003-09-03 07:32:33 51°26.99 2°40.08 19.649513 4.665107 34.035204 1.443571
2003-09-03 07:33:33 51°26.97 2°40.02 19.74656 4.664474 34.029455 1.443571
2003-09-03 07:34:33 51°26.98 2°40.01 19.746479 4.664052 34.026004 1.443571
2003-09-03 07:35:31 51°26.99 2°39.99 19.610339 4.66363 34.017403 1.949212
2003-09-03 07:36:31 51°27 2°39.98 19.60802 4.66247 34.014209 1.443571
2003-09-03 07:37:39 51°27.01 2°39.98 19.613838 4.662786 34.012219 1.376153
2003-09-03 07:38:39 51°27.03 2°39.97 19.610542 4.663103 34.013662 1.409862
2003-09-03 07:39:39 51°27.05 2°39.95 19.604968 4.662047 34.007325 1.443571
2003-09-03 07:40:39 51°27.13 2°39.93 19.609973 4.661098 34.001278 1.5447
2003-09-03 07:41:39 51°27.17 2°40.04 19.616727 4.66268 34.008496 1.578409
2003-09-03 07:42:39 51°27.16 2°40.19 19.616483 4.661942 34.000171 1.578409
2003-09-03 07:43:39 51°27.1 2°40.28 19.611926 4.662469 34.007915 1.5447
2003-09-03 07:44:39 51°27.02 2°40.3 19.610705 4.663419 34.01625 1.5447
2003-09-03 07:45:45 51°26.95 2°40.25 19.606718 4.663525 34.018257 1.51099
2003-09-03 07:46:51 51°26.9 2°40.17 19.608589 4.664369 34.02573 1.477281
2003-09-03 07:47:51 51°26.87 2°40.1 19.603381 4.664474 34.024303 1.477281
2003-09-03 07:48:51 51°26.84 2°40.03 19.604235 4.662786 34.015652 1.477281
2003-09-03 07:49:51 51°26.81 2°39.97 19.608833 4.661414 34.002722 1.51099
2003-09-03 07:50:51 51°26.79 2°39.91 19.606636 4.661836 34.002168 1.51099
2003-09-03 07:51:51 51°26.78 2°39.85 19.607002 4.660992 33.997556 1.51099
2003-09-03 07:52:51 51°26.76 2°39.81 19.609444 4.660359 33.991237 1.5447
2003-09-03 07:53:51 51°26.74 2°39.76 19.610258 4.660042 33.986363 1.5447
2003-09-03 07:54:51 51°26.72 2°39.71 19.615344 4.659093 33.979173 1.5447
2003-09-03 07:56:01 51°26.7 2°39.65 19.620796 4.660148 33.98151 1.51099
2003-09-03 07:56:59 51°26.69 2°39.59 19.622382 4.659726 33.975776 1.5447
2003-09-03 07:58:05 51°26.68 2°39.52 19.626328 4.659831 33.973211 1.5447
2003-09-03 07:59:09 51°26.66 2°39.46 19.661387 4.660042 33.972079 1.5447
2003-09-03 08:00:09 51°26.64 2°39.41 19.627996 4.659937 33.971217 1.5447
2003-09-03 08:01:09 51°26.62 2°39.36 19.633163 4.659409 33.964052 1.51099
2003-09-03 08:02:15 51°26.6 2°39.31 19.634586 4.660148 33.964377 1.578409
2003-09-03 08:03:15 51°26.57 2°39.26 19.63845 4.659198 33.957762 1.578409
2003-09-03 08:04:15 51°26.55 2°39.22 19.642152 4.659092 33.952906 1.612118
2003-09-03 08:05:15 51°26.52 2°39.18 19.64142 4.659831 33.955515 1.578409
2003-09-03 08:06:15 51°26.49 2°39.14 19.646869 4.658459 33.944314 1.612118
2003-09-03 08:07:15 51°26.46 2°39.1 19.652685 4.658987 33.9452 1.645828
2003-09-03 08:08:15 51°26.43 2°39.06 19.653823 4.65867 33.938625 1.612118
2003-09-03 08:09:15 51°26.4 2°39.01 19.656385 4.659092 33.93979 1.612118
2003-09-03 08:10:15 51°26.38 2°38.95 19.659272 4.659198 33.939511 1.645828
2003-09-03 08:11:19 51°26.36 2°38.89 19.655775 4.65867 33.934065 1.612118
2003-09-03 08:12:19 51°26.33 2°38.85 19.659354 4.658353 33.933191 1.679537
2003-09-03 08:13:19 51°26.29 2°38.82 19.661915 4.658353 33.929772 1.645828
2003-09-03 08:14:19 51°26.26 2°38.78 19.667811 4.659514 33.935256 1.612118
2003-09-03 08:15:19 51°26.23 2°38.73 19.671551 4.65867 33.926088 1.679537
2003-09-03 08:16:19 51°26.21 2°38.68 19.67086 4.658881 33.925532 1.612118
2003-09-03 08:17:19 51°26.19 2°38.62 19.671348 4.658986 33.925824 1.645828
2003-09-03 08:18:19 51°26.18 2°38.56 19.67208 4.658142 33.919505 1.679537
2003-09-03 08:19:19 51°26.18 2°38.5 19.673177 4.659092 33.925546 1.679537
2003-09-03 08:20:19 51°26.18 2°38.46 19.674682 4.659408 33.928129 1.679537
2003-09-03 08:21:19 51°26.19 2°38.42 19.67643 4.65983 33.928155 1.645828
2003-09-03 08:22:19 51°26.21 2°38.37 19.678015 4.660252 33.93046 1.645828
2003-09-03 08:23:19 51°26.22 2°38.32 19.678787 4.65983 33.927017 1.645828
2003-09-03 08:24:19 51°26.24 2°38.27 19.679153 4.66078 33.932487 1.679537
2003-09-03 08:25:19 51°26.26 2°38.16 19.676673 4.661308 33.93736 1.679537
2003-09-03 08:26:25 51°26.29 2°38.02 19.675007 4.662152 33.943108 1.814375
2003-09-03 08:27:25 51°26.31 2°37.94 19.669559 4.662785 33.951123 1.814375
2003-09-03 08:28:27 51°26.32 2°37.87 19.669234 4.66384 33.963153 1.746956
2003-09-03 08:29:29 51°26.33 2°37.82 19.667364 4.664579 33.972032 1.746956
2003-09-03 08:30:29 51°26.32 2°37.72 19.664843 4.664684 33.974605 1.780665
2003-09-03 08:31:35 51°26.22 2°37.47 19.668055 4.66479 33.974896 1.881794
2003-09-03 08:32:35 51°26.09 2°37.22 19.667608 4.664895 33.974046 1.982922
2003-09-03 08:33:35 51°25.94 2°36.99 19.67025 4.66595 33.980947 1.982922
2003-09-03 08:34:35 51°25.79 2°36.77 19.672364 4.664895 33.968913 1.982922
2003-09-03 08:35:45 51°25.61 2°36.52 19.670616 4.667744 33.993305 1.949212
2003-09-03 08:36:49 51°25.42 2°36.34 19.66777 4.668588 34.001907 1.915503
2003-09-03 08:37:55 51°25.21 2°36.24 19.681958 4.666162 33.984951 2.117759
2003-09-03 08:38:55 51°25.02 2°36.15 19.69911 4.650756 33.841066 2.353725
2003-09-03 08:39:59 51°24.83 2°35.97 19.700735 4.648751 33.814511 2.320016
2003-09-03 08:41:05 51°24.65 2°35.77 19.694314 4.64664 33.797313 2.387435
2003-09-03 08:42:05 51°24.48 2°35.57 19.688096 4.644635 33.786641 2.421144
2003-09-03 08:43:05 51°24.31 2°35.39 19.682121 4.643475 33.782282 2.421144
2003-09-03 08:44:05 51°24.14 2°35.21 19.690819 4.638516 33.743561 2.454853
2003-09-03 08:45:09 51°23.97 2°34.97 19.694395 4.63936 33.744214 2.421144
2003-09-03 08:46:09 51°23.83 2°34.72 19.688502 4.638938 33.740208 2.421144
2003-09-03 08:47:19 51°23.66 2°34.42 19.68147 4.639676 33.752454 2.454853
2003-09-03 08:48:19 51°23.52 2°34.16 19.683421 4.639887 33.758139 2.454853
2003-09-03 08:49:19 51°23.38 2°33.9 19.691876 4.63936 33.752139 2.454853
2003-09-03 08:50:19 51°23.24 2°33.64 19.698419 4.645585 33.796649 2.454853
2003-09-03 08:51:19 51°23.09 2°33.38 19.699069 4.647906 33.810466 2.353725
2003-09-03 08:52:25 51°22.93 2°33.09 19.697484 4.647273 33.805306 2.387435
2003-09-03 08:53:25 51°22.79 2°32.83 19.701426 4.650544 33.8314 2.353725
2003-09-03 08:54:25 51°22.64 2°32.57 19.697118 4.650861 33.83171 2.320016
2003-09-03 08:55:31 51°22.48 2°32.28 19.696346 4.650755 33.831985 2.320016
2003-09-03 08:56:29 51°22.34 2°32.03 19.68582 4.651283 33.83742 2.387435
2003-09-03 08:57:29 51°22.19 2°31.77 19.688421 4.651389 33.84566 2.488563
2003-09-03 08:58:29 51°22.04 2°31.5 19.687364 4.652233 33.852542 2.522272
2003-09-03 08:59:39 51°21.87 2°31.2 19.670169 4.652233 33.851407 2.555982
2003-09-03 09:35:36 51°17.85 2°27.66 19.493705 4.662893 34.091092 3.061623
2003-09-03 09:36:37 51°17.81 2°27.56 19.492605 4.662787 34.091377 3.129042
2003-09-03 09:37:37 51°17.77 2°27.48 19.491382 4.662787 34.090802 3.095332
2003-09-03 09:38:37 51°17.73 2°27.43 19.489181 4.66321 34.095411 3.027913
2003-09-03 09:39:37 51°17.7 2°27.4 19.486531 4.661943 34.086761 2.994204
2003-09-03 09:40:37 51°17.67 2°27.36 19.484738 4.658461 34.062826 2.994204
2003-09-03 09:41:37 51°17.64 2°27.32 19.484656 4.658039 34.057643 3.061623
2003-09-03 09:42:37 51°17.62 2°27.29 19.482618 4.658989 34.066575 2.926785
2003-09-03 09:43:37 51°17.59 2°27.25 19.481028 4.661838 34.090497 2.960494
2003-09-03 09:44:37 51°17.56 2°27.21 19.477278 4.660994 34.085304 3.027913
2003-09-03 09:45:37 51°17.53 2°27.17 19.476666 4.657617 34.059932 2.926785
2003-09-03 09:46:37 51°17.5 2°27.12 19.475036 4.662049 34.097405 3.061623
2003-09-03 09:47:37 51°17.47 2°27.08 19.472712 4.662682 34.104321 2.994204
2003-09-03 09:48:37 51°17.44 2°27.04 19.470999 4.662366 34.10115 2.994204
2003-09-03 09:49:37 51°17.41 2°27 19.467085 4.66226 34.103739 3.061623
2003-09-03 09:50:37 51°17.38 2°26.96 19.463334 4.662999 34.110946 3.061623
2003-09-03 09:51:37 51°17.35 2°26.91 19.461988 4.662471 34.111803 2.994204
2003-09-03 09:52:37 51°17.32 2°26.87 19.459582 4.66226 34.109497 2.960494
2003-09-03 09:53:37 51°17.3 2°26.83 19.459664 4.663527 34.124488 3.061623
2003-09-03 09:54:37 51°17.27 2°26.79 19.456687 4.664054 34.127662 3.061623
2003-09-03 09:55:37 51°17.24 2°26.74 19.455872 4.663738 34.125066 3.027913
2003-09-03 09:56:37 51°17.22 2°26.69 19.454811 4.662999 34.122466 3.027913
2003-09-03 09:57:37 51°17.2 2°26.65 19.453139 4.664054 34.130544 2.960494
2003-09-03 09:58:37 51°17.2 2°26.6 19.453506 4.662788 34.121888 3.027913
2003-09-03 09:59:37 51°17.19 2°26.55 19.457584 4.66226 34.118137 3.027913
2003-09-03 10:00:37 51°17.19 2°26.5 19.458522 4.66226 34.115832 3.027913
2003-09-03 10:01:37 51°17.19 2°26.45 19.460235 4.662999 34.120738 3.061623
2003-09-03 10:02:41 51°17.2 2°26.39 19.468635 4.662788 34.11555 3.095332
2003-09-03 10:03:41 51°17.22 2°26.35 19.477685 4.662049 34.102009 3.095332
2003-09-03 10:04:45 51°17.31 2°26.3 19.490241 4.662577 34.100003 3.027913
2003-09-03 10:05:45 51°17.46 2°26.32 19.499656 4.664265 34.100031 2.825657
2003-09-03 10:06:45 51°17.66 2°26.41 19.509395 4.66437 34.095145 2.859366
2003-09-03 10:07:45 51°17.84 2°26.58 19.514244 4.666797 34.105251 2.825657
2003-09-03 10:08:45 51°18.01 2°26.78 19.522963 4.667219 34.106408 2.555982
2003-09-03 10:09:45 51°18.16 2°27 19.518319 4.667852 34.105269 2.690819
2003-09-03 10:10:45 51°18.31 2°27.24 19.520886 4.665953 34.094313 2.859366
2003-09-03 10:11:45 51°18.45 2°27.49 19.519378 4.666375 34.094322 2.791947
2003-09-03 10:12:45 51°18.58 2°27.74 19.522474 4.666058 34.092304 2.994204
2003-09-03 10:13:49 51°18.68 2°28.06 19.512574 4.664581 34.07791 2.994204
2003-09-03 10:14:49 51°18.77 2°28.37 19.500022 4.664475 34.085088 2.859366
2003-09-03 10:15:49 51°18.85 2°28.68 19.479846 4.664687 34.099463 2.926785
2003-09-03 10:16:49 51°18.87 2°29 19.483719 4.663526 34.102032 2.859366
2003-09-03 10:17:49 51°18.85 2°29.3 19.478379 4.662049 34.089926 2.758238
2003-09-03 10:18:49 51°18.8 2°29.6 19.503731 4.661416 34.084737 2.724529
2003-09-03 10:19:49 51°18.67 2°29.85 19.540561 4.657828 34.032948 2.960494
2003-09-03 10:20:49 51°18.51 2°30.08 19.542028 4.655506 33.988159 2.960494
2003-09-03 10:21:57 51°18.34 2°30.36 19.502794 4.656878 34.006255 3.162751
2003-09-03 10:22:59 51°18.17 2°30.62 19.524593 4.660888 34.066046 2.65711
2003-09-03 10:23:59 51°18.02 2°30.87 19.529237 4.653712 33.981497 2.522272
2003-09-03 10:24:59 51°17.87 2°31.11 19.647601 4.658566 34.018925 2.488563
2003-09-03 10:25:59 51°17.72 2°31.36 19.583926 4.639677 33.786466 2.454853
2003-09-03 10:27:01 51°17.56 2°31.61 19.610136 4.648224 33.886947 2.65711
2003-09-03 10:28:03 51°17.41 2°31.89 19.640728 4.647063 33.8638 2.522272
2003-09-03 10:29:01 51°17.27 2°32.13 19.651262 4.64643 33.830771 2.488563
2003-09-03 10:30:03 51°17.12 2°32.4 19.649513 4.643475 33.808941 2.488563
2003-09-03 10:31:03 51°16.98 2°32.66 19.642152 4.64126 33.792568 2.589691
2003-09-03 10:32:07 51°16.81 2°32.92 19.568253 4.640521 33.795624 2.555982
2003-09-03 10:33:07 51°16.66 2°33.17 19.515141 4.637568 33.821523 2.690819
2003-09-03 10:34:05 51°16.5 2°33.4 19.475973 4.642528 33.909991 3.061623
2003-09-03 10:35:05 51°16.34 2°33.61 19.465577 4.643689 33.94238 2.960494
2003-09-03 10:36:07 51°16.18 2°33.81 19.453221 4.641157 33.931373 3.027913
2003-09-03 10:37:07 51°16.02 2°34.01 19.433847 4.640629 33.934497 2.926785
2003-09-03 10:38:09 51°15.84 2°34.24 19.45473 4.639996 33.939623 2.825657
2003-09-03 10:39:13 51°15.65 2°34.47 19.545123 4.628917 33.820857 2.994204
2003-09-03 10:40:13 51°15.49 2°34.71 19.495539 4.63092 33.780859 2.6234
2003-09-03 10:41:13 51°15.33 2°34.96 19.480376 4.632714 33.808041 2.6234
2003-09-03 10:42:13 51°15.17 2°35.2 19.445105 4.628706 33.821412 2.555982
2003-09-03 10:43:13 51°15.01 2°35.44 19.410265 4.624169 33.816227 2.6234
2003-09-03 10:44:13 51°14.86 2°35.69 19.368793 4.623114 33.829869 2.926785
2003-09-03 10:45:13 51°14.7 2°35.94 19.307969 4.625647 33.887296 3.095332
2003-09-03 10:46:13 51°14.55 2°36.18 19.188866 4.6228 33.919616 3.061623
2003-09-03 10:47:13 51°14.4 2°36.42 19.073905 4.612039 33.916315 3.061623
2003-09-03 10:48:13 51°14.24 2°36.65 19.105307 4.603916 33.927324 3.027913
2003-09-03 10:49:13 51°14.08 2°36.89 19.084729 4.609718 33.947441 3.027913
2003-09-03 10:50:13 51°13.93 2°37.12 19.090386 4.61088 33.988878 2.724529
2003-09-03 10:51:13 51°13.77 2°37.36 19.208185 4.618265 34.029562 2.791947
2003-09-03 10:52:13 51°13.58 2°37.5 19.133048 4.620797 33.994836 3.095332
2003-09-03 10:53:13 51°13.37 2°37.55 19.05377 4.618054 34.017381 3.263879
2003-09-03 10:54:13 51°13.14 2°37.57 19.036377 4.613201 34.023143 3.027913
2003-09-03 10:55:13 51°12.91 2°37.55 19.052785 4.619532 34.08477 3.027913
2003-09-03 10:56:13 51°12.67 2°37.47 19.051965 4.622803 34.108318 3.095332
2003-09-03 10:57:19 51°12.42 2°37.37 19.065171 4.626496 34.138268 3.162751
2003-09-03 10:58:19 51°12.19 2°37.3 19.060701 4.628817 34.151631 3.365007
2003-09-03 10:59:19 51°11.95 2°37.22 19.064474 4.62618 34.132737 3.533554
2003-09-03 11:00:19 51°11.71 2°37.14 19.079809 4.629134 34.149584 3.432426
2003-09-03 11:01:19 51°11.48 2°37.06 19.158403 4.629239 34.141132 3.533554
2003-09-03 11:02:19 51°11.24 2°36.99 19.065007 4.639473 34.181991 3.365007
2003-09-03 11:03:19 51°11 2°36.91 18.992261 4.629451 34.169699 3.331298
2003-09-03 11:04:19 51°10.77 2°36.85 19.00831 4.621854 34.141864 3.263879
2003-09-03 11:05:19 51°10.54 2°36.84 18.988032 4.618583 34.119459 3.263879
2003-09-03 11:06:17 51°10.32 2°36.86 19.010814 4.615946 34.102292 3.331298
2003-09-03 11:07:17 51°10.14 2°37.05 19.080793 4.60972 34.032722 2.353725
2003-09-03 11:08:19 51°10.08 2°37.37 19.135588 4.586929 33.8154 1.881794
2003-09-03 11:09:19 51°10.07 2°37.69 19.046551 4.587562 33.806197 2.151469
2003-09-03 11:10:19 51°10.06 2°38.02 19.108708 4.578804 33.712071 2.117759
2003-09-03 11:11:19 51°10.05 2°38.35 19.055779 4.577749 33.680976 2.117759
2003-09-03 11:12:19 51°10.04 2°38.67 18.996653 4.579438 33.75413 2.117759
2003-09-03 11:13:19 51°10.03 2°39 18.998829 4.579544 33.788464 2.117759
2003-09-03 11:14:17 51°10.02 2°39.31 18.992097 4.587246 33.85617 2.050341
2003-09-03 11:15:17 51°10.01 2°39.6 19.071117 4.585242 33.845385 2.050341
2003-09-03 11:16:19 51°10.01 2°39.82 19.099978 4.577539 33.725785 1.780665
2003-09-03 11:17:17 51°10 2°39.97 19.014959 4.574478 33.679851 1.679537
2003-09-03 11:18:17 51°9.99 2°40 19.018324 4.57258 33.728623 1.848084
2003-09-03 11:19:19 51°9.97 2°39.99 19.155454 4.571103 33.722186 1.814375
2003-09-03 11:20:19 51°9.95 2°39.97 19.31463 4.566669 33.532599 1.308734
2003-09-03 11:21:19 51°9.93 2°39.95 19.055041 4.573104 33.526253 1.443571
2003-09-03 11:22:19 51°9.88 2°39.95 19.030428 4.571947 33.6923 1.746956
2003-09-03 11:23:19 51°9.8 2°39.97 18.99066 4.565722 33.662775 1.780665
2003-09-03 11:24:19 51°9.72 2°39.96 18.975058 4.56087 33.657215 1.949212
2003-09-03 11:25:19 51°9.66 2°39.9 18.929589 4.55475 33.615856 1.949212
2003-09-03 11:26:19 51°9.62 2°39.82 18.887666 4.543673 33.563962 1.949212
2003-09-03 11:27:19 51°9.59 2°39.74 18.840247 4.537027 33.538885 2.151469
2003-09-03 11:28:19 51°9.56 2°39.66 18.851354 4.534601 33.552764 2.218888
2003-09-03 11:29:19 51°9.54 2°39.58 18.838149 4.53344 33.534513 2.151469
2003-09-03 11:30:19 51°9.53 2°39.5 18.822225 4.533757 33.545773 2.185178
2003-09-03 11:31:19 51°9.53 2°39.43 18.828644 4.533968 33.559048 2.218888
2003-09-03 11:32:19 51°9.52 2°39.36 18.8328 4.534179 33.555608 2.185178
2003-09-03 11:33:19 51°9.51 2°39.29 18.840864 4.5365 33.573685 2.252597
2003-09-03 11:34:19 51°9.5 2°39.22 18.828727 4.537661 33.57984 2.252597
2003-09-03 11:35:19 51°9.49 2°39.15 18.827081 4.539982 33.604843 2.320016
2003-09-03 11:36:19 51°9.48 2°39.09 18.836626 4.541353 33.615055 2.252597
2003-09-03 11:37:19 51°9.46 2°39.02 18.843497 4.54167 33.615368 2.286306
2003-09-03 11:38:19 51°9.45 2°38.95 18.849626 4.541881 33.606726 2.218888
2003-09-03 11:39:19 51°9.43 2°38.89 18.852629 4.543358 33.616076 2.252597
2003-09-03 11:40:19 51°9.42 2°38.82 18.849626 4.543885 33.615829 2.353725
2003-09-03 11:41:19 51°9.4 2°38.75 18.868916 4.54494 33.625722 2.286306
2003-09-03 11:42:21 51°9.38 2°38.68 18.868916 4.54494 33.617643 2.218888
2003-09-03 11:43:19 51°9.37 2°38.62 18.86394 4.5461 33.623215 2.218888
2003-09-03 11:44:19 51°9.35 2°38.55 18.860609 4.546734 33.635961 2.320016
2003-09-03 11:45:19 51°9.34 2°38.49 18.866325 4.546839 33.640299 2.320016
2003-09-03 11:46:19 51°9.32 2°38.42 18.874632 4.547156 33.634838 2.286306
2003-09-03 11:47:19 51°9.3 2°38.36 18.876236 4.548 33.636056 2.286306
2003-09-03 11:48:19 51°9.28 2°38.29 18.872165 4.54916 33.643934 2.252597
2003-09-03 11:49:21 51°9.26 2°38.23 18.872165 4.549582 33.645697 2.218888
2003-09-03 11:50:19 51°9.24 2°38.16 18.880841 4.549477 33.645978 2.252597
2003-09-03 11:51:19 51°9.22 2°38.1 18.875701 4.549476 33.643669 2.353725
2003-09-03 11:52:19 51°9.21 2°38.04 18.88339 4.550743 33.656462 2.353725
2003-09-03 11:53:19 51°9.2 2°37.98 18.878333 4.550215 33.651516 2.353725
2003-09-03 11:54:19 51°9.19 2°37.92 18.887748 4.550848 33.652717 2.353725
2003-09-03 11:55:19 51°9.18 2°37.85 18.901355 4.55127 33.64813 2.286306
2003-09-03 11:56:21 51°9.17 2°37.77 18.904233 4.553274 33.656644 2.286306
2003-09-03 11:57:19 51°9.17 2°37.7 18.904849 4.551692 33.645854 2.353725
2003-09-03 11:58:19 51°9.19 2°37.6 18.915165 4.555173 33.671786 2.320016
2003-09-03 11:59:19 51°9.26 2°37.58 18.955387 4.558866 33.683873 2.286306
2003-09-03 12:00:21 51°9.31 2°37.59 18.944584 4.560659 33.675059 2.320016
2003-09-03 12:01:19 51°9.34 2°37.62 18.951239 4.561081 33.686046 2.252597
2003-09-03 12:02:19 51°9.38 2°37.64 19.034654 4.562664 33.691058 2.185178
2003-09-03 12:03:19 51°9.41 2°37.67 19.01184 4.565195 33.646922 1.780665
2003-09-03 12:04:19 51°9.43 2°37.72 19.005273 4.573952 33.741107 2.218888
2003-09-03 12:05:21 51°9.44 2°37.79 19.06107 4.572686 33.724307 2.050341
2003-09-03 12:06:19 51°9.45 2°37.85 19.125755 4.5768 33.712213 1.780665
2003-09-03 12:07:19 51°9.46 2°37.92 19.131245 4.578065 33.691046 1.848084
2003-09-03 12:08:19 51°9.47 2°37.99 19.134768 4.578804 33.678768 1.679537
2003-09-03 12:09:19 51°9.48 2°38.06 19.11842 4.580597 33.696412 1.645828
2003-09-03 12:10:19 51°9.48 2°38.13 19.09551 4.581969 33.720923 1.814375
2003-09-03 12:11:19 51°9.47 2°38.21 19.065745 4.58102 33.72804 1.780665
2003-09-03 12:12:19 51°9.46 2°38.28 19.045361 4.579754 33.746372 1.915503
2003-09-03 12:13:19 51°9.44 2°38.36 19.055779 4.577855 33.741066 1.713247
2003-09-03 12:14:19 51°9.43 2°38.43 19.047289 4.576273 33.717641 1.713247
2003-09-03 12:15:19 51°9.43 2°38.5 19.061931 4.573424 33.701038 1.645828
2003-09-03 12:16:19 51°9.43 2°38.58 19.044294 4.572158 33.68944 1.645828
2003-09-03 12:17:19 51°9.43 2°38.65 19.049381 4.571208 33.693684 1.746956
2003-09-03 12:18:21 51°9.45 2°38.72 19.035844 4.571208 33.687931 1.645828
2003-09-03 12:19:21 51°9.46 2°38.79 19.042161 4.570259 33.684695 1.645828
2003-09-03 12:20:19 51°9.48 2°38.85 19.014138 4.570575 33.691911 1.713247
2003-09-03 12:21:19 51°9.48 2°38.92 19.005314 4.568677 33.695803 1.881794
2003-09-03 12:22:19 51°9.49 2°39 19.014507 4.567411 33.684194 1.679537
2003-09-03 12:23:21 51°9.51 2°39.07 19.009952 4.568571 33.694931 1.679537
2003-09-03 12:24:19 51°9.52 2°39.13 19.010937 4.569521 33.697015 1.612118
2003-09-03 12:25:19 51°9.55 2°39.19 19.011963 4.568888 33.694666 1.578409
2003-09-03 12:26:21 51°9.57 2°39.25 19.003877 4.568044 33.68712 1.5447
2003-09-03 12:27:19 51°9.6 2°39.31 19.024684 4.566356 33.676632 1.578409
2003-09-03 12:28:19 51°9.62 2°39.38 18.996038 4.566567 33.693924 1.713247
2003-09-03 12:29:21 51°9.62 2°39.45 18.988197 4.568255 33.70211 1.578409
2003-09-03 12:30:19 51°9.62 2°39.53 18.980807 4.568149 33.708154 1.679537
2003-09-03 12:31:19 51°9.61 2°39.6 19.001209 4.567411 33.702628 1.679537
2003-09-03 12:32:21 51°9.59 2°39.67 18.992097 4.568782 33.70013 1.578409
2003-09-03 12:33:21 51°9.58 2°39.74 19.001292 4.568149 33.694901 1.51099
2003-09-03 12:34:19 51°9.58 2°39.8 18.983886 4.565617 33.678016 1.376153
2003-09-03 12:35:19 51°9.56 2°39.85 18.999896 4.562136 33.662495 1.578409
2003-09-03 12:36:21 51°9.54 2°39.88 19.01463 4.563085 33.650198 1.409862
2003-09-03 12:37:19 51°9.53 2°39.9 19.014343 4.559392 33.613962 1.443571
2003-09-03 12:38:21 51°9.51 2°39.92 19.005355 4.555066 33.57883 1.443571
2003-09-03 12:39:19 51°9.5 2°39.93 18.976413 4.551901 33.560162 1.51099
2003-09-03 12:40:21 51°9.49 2°39.94 18.963519 4.546521 33.540401 1.645828
2003-09-03 12:41:21 51°9.49 2°39.97 18.9597 4.543883 33.524352 1.746956
2003-09-03 12:42:19 51°9.57 2°40.17 18.97629 4.541457 33.504883 1.645828
2003-09-03 12:43:19 51°9.7 2°40.4 19.012948 4.544411 33.517814 1.848084
2003-09-03 12:44:21 51°9.83 2°40.66 19.008885 4.557704 33.604047 1.713247
2003-09-03 12:45:21 51°9.95 2°40.93 18.969022 4.562768 33.651035 1.713247
2003-09-03 12:46:19 51°10.04 2°41.2 18.981176 4.56087 33.65664 1.679537
2003-09-03 12:47:21 51°10.15 2°41.5 18.949185 4.554645 33.60291 1.612118
2003-09-03 12:48:21 51°10.25 2°41.78 19.127886 4.54937 33.583464 1.612118
2003-09-03 12:49:19 51°10.35 2°42.06 18.995668 4.54399 33.560829 1.645828
2003-09-03 12:50:19 51°10.45 2°42.35 19.110143 4.540297 33.53202 1.578409
2003-09-03 12:51:21 51°10.55 2°42.65 19.073454 4.535233 33.505078 1.612118
2003-09-03 12:52:19 51°10.64 2°42.92 19.010485 4.529747 33.460857 1.578409
2003-09-03 12:53:19 51°10.74 2°43.21 19.117314 4.524155 33.41348 1.578409
2003-09-03 12:54:19 51°10.83 2°43.49 19.079563 4.516665 33.348706 1.679537
2003-09-03 12:55:19 51°10.92 2°43.78 19.054385 4.507592 33.277163 1.645828
2003-09-03 12:56:19 51°11.02 2°44.06 18.936902 4.496514 33.180543 1.679537
2003-09-03 12:57:19 51°11.11 2°44.35 19.053524 4.488285 33.121688 1.848084
2003-09-03 12:58:19 51°11.21 2°44.64 18.949719 4.477103 33.048632 1.848084
2003-09-03 12:59:19 51°11.3 2°44.93 19.021155 4.47109 33.019366 1.881794
2003-09-03 13:00:19 51°11.4 2°45.21 19.048725 4.472883 33.002467 1.814375
2003-09-03 13:01:19 51°11.51 2°45.49 19.073167 4.473516 32.994117 1.949212
2003-09-03 13:02:19 51°11.62 2°45.76 19.029566 4.47457 32.980783 2.016631
2003-09-03 13:03:19 51°11.72 2°46.04 19.139521 4.479845 33.006198 2.016631
2003-09-03 13:04:19 51°11.82 2°46.32 19.18162 4.475941 32.966131 1.982922
2003-09-03 13:05:19 51°11.91 2°46.61 19.041464 4.470139 32.914388 1.982922
2003-09-03 13:06:19 51°12 2°46.89 19.041833 4.461278 32.846467 2.016631
2003-09-03 13:07:19 51°12.09 2°47.18 19.111577 4.446931 32.752439 2.185178
2003-09-03 13:08:19 51°12.18 2°47.46 19.062218 4.435116 32.642851 2.08405
2003-09-03 13:09:19 51°12.28 2°47.75 19.03851 4.434483 32.632059 1.780665
2003-09-03 13:10:19 51°12.37 2°48.04 19.225494 4.445875 32.712954 1.51099
2003-09-03 13:11:19 51°12.46 2°48.34 19.108995 4.45347 32.738521 1.342443
2003-09-03 13:12:19 51°12.57 2°48.62 19.18817 4.440601 32.65225 1.443571
2003-09-03 13:13:19 51°12.67 2°48.91 19.102888 4.426677 32.576751 1.5447
2003-09-03 13:14:19 51°12.77 2°49.2 19.068574 4.414018 32.480955 1.645828
2003-09-03 13:15:19 51°12.88 2°49.48 19.045607 4.404419 32.41476 1.713247
2003-09-03 13:16:19 51°12.98 2°49.77 19.009336 4.399461 32.381185 1.679537
2003-09-03 13:17:19 51°13.08 2°50.06 18.968201 4.400199 32.366198 1.746956
2003-09-03 13:18:19 51°13.19 2°50.35 18.962246 4.398511 32.334063 1.881794
2003-09-03 13:19:19 51°13.29 2°50.64 19.069559 4.392605 32.314822 2.016631
2003-09-03 13:20:19 51°13.39 2°50.93 19.125017 4.386698 32.292794 2.218888
2003-09-03 13:21:19 51°13.48 2°51.23 18.992343 4.381846 32.278321 2.421144
2003-09-03 13:22:19 51°13.58 2°51.52 19.028951 4.383322 32.267789 2.421144
2003-09-03 13:23:19 51°13.68 2°51.82 18.991276 4.379314 32.254161 2.522272
2003-09-03 13:24:19 51°13.77 2°52.12 18.967462 4.380158 32.257235 2.724529
2003-09-03 13:25:19 51°13.85 2°52.42 19.002974 4.380896 32.237334 3.129042
2003-09-03 13:26:19 51°13.93 2°52.72 18.984173 4.381528 32.207784 3.331298
2003-09-03 13:27:19 51°14.02 2°53.02 19.176993 4.385642 32.213477 3.23017
2003-09-03 13:28:19 51°14.1 2°53.32 19.069108 4.381106 32.207624 3.331298
2003-09-03 13:29:19 51°14.18 2°53.63 19.133498 4.382056 32.216526 3.533554
2003-09-03 13:30:19 51°14.26 2°53.93 19.152833 4.389122 32.222229 3.836939
2003-09-03 13:31:19 51°14.32 2°54.25 19.168149 4.393869 32.232557 4.005486
2003-09-03 13:32:19 51°14.35 2°54.58 19.103339 4.393869 32.237507 4.443708